createdAt,value
2018-09-06T00:00:38.860Z,0.00
2018-09-06T00:01:38.858Z,0.00
2018-09-06T00:02:38.853Z,0.00
2018-09-06T00:03:38.857Z,0.00
2018-09-06T00:04:38.854Z,0.00
2018-09-06T00:05:38.858Z,0.00
2018-09-06T00:06:38.851Z,0.00
2018-09-06T00:07:38.847Z,0.00
2018-09-06T00:08:38.849Z,0.00
2018-09-06T00:09:38.849Z,0.00
2018-09-06T00:10:38.850Z,0.00
2018-09-06T00:11:38.867Z,0.00
2018-09-06T00:12:38.854Z,0.00
2018-09-06T00:13:38.846Z,0.00
2018-09-06T00:14:38.845Z,0.00
2018-09-06T00:15:38.851Z,0.00
2018-09-06T00:16:38.842Z,0.00
2018-09-06T00:17:38.844Z,0.00
2018-09-06T00:18:38.845Z,0.00
2018-09-06T00:19:38.847Z,0.00
2018-09-06T00:20:38.849Z,0.00
2018-09-06T00:21:38.838Z,0.00
2018-09-06T00:22:38.840Z,0.00
2018-09-06T00:23:38.842Z,0.00
2018-09-06T00:24:38.840Z,0.00
2018-09-06T00:25:38.838Z,0.00
2018-09-06T00:26:38.844Z,0.00
2018-09-06T00:27:38.838Z,0.00
2018-09-06T00:28:38.838Z,0.00
2018-09-06T00:29:38.837Z,0.00
2018-09-06T00:30:38.837Z,0.00
2018-09-06T00:31:38.836Z,0.00
2018-09-06T00:32:38.836Z,0.00
2018-09-06T00:33:38.838Z,0.00
2018-09-06T00:34:38.837Z,0.00
2018-09-06T00:35:38.830Z,0.00
2018-09-06T00:36:38.832Z,0.00
2018-09-06T00:37:38.835Z,0.00
2018-09-06T00:38:38.832Z,0.00
2018-09-06T00:39:38.831Z,0.00
2018-09-06T00:40:38.834Z,0.00
2018-09-06T00:41:38.829Z,0.00
2018-09-06T00:42:38.830Z,0.00
2018-09-06T00:43:38.830Z,0.00
2018-09-06T00:44:38.828Z,0.00
2018-09-06T00:45:38.826Z,0.00
2018-09-06T00:46:38.828Z,0.00
2018-09-06T00:47:38.829Z,0.00
2018-09-06T00:48:38.825Z,0.00
2018-09-06T00:49:38.821Z,0.00
2018-09-06T00:50:38.823Z,0.00
2018-09-06T00:51:38.824Z,0.00
2018-09-06T00:52:38.825Z,0.00
2018-09-06T00:53:38.822Z,0.00
2018-09-06T00:54:38.829Z,0.00
2018-09-06T00:55:38.820Z,0.00
2018-09-06T00:56:38.824Z,0.00
2018-09-06T00:57:38.822Z,0.00
2018-09-06T00:58:38.818Z,0.00
2018-09-06T00:59:38.817Z,0.00
2018-09-06T01:00:38.819Z,0.00
2018-09-06T01:01:38.816Z,0.00
2018-09-06T01:02:38.817Z,0.00
2018-09-06T01:03:38.811Z,0.00
2018-09-06T01:04:38.814Z,0.00
2018-09-06T01:05:38.814Z,0.00
2018-09-06T01:06:38.816Z,0.00
2018-09-06T01:07:38.816Z,0.00
2018-09-06T01:08:38.818Z,0.00
2018-09-06T01:09:38.810Z,0.00
2018-09-06T01:10:38.811Z,0.00
2018-09-06T01:11:38.814Z,0.00
2018-09-06T01:12:38.808Z,0.00
2018-09-06T01:13:38.808Z,0.00
2018-09-06T01:14:38.809Z,0.00
2018-09-06T01:15:38.811Z,0.00
2018-09-06T01:16:38.801Z,0.00
2018-09-06T01:17:38.800Z,0.00
2018-09-06T01:18:38.805Z,0.00
2018-09-06T01:19:38.804Z,0.00
2018-09-06T01:20:38.802Z,0.00
2018-09-06T01:21:38.803Z,0.00
2018-09-06T01:22:38.800Z,0.00
2018-09-06T01:23:38.800Z,0.00
2018-09-06T01:24:38.799Z,0.00
2018-09-06T01:25:38.802Z,0.00
2018-09-06T01:26:38.798Z,0.00
2018-09-06T01:27:38.799Z,0.00
2018-09-06T01:28:38.795Z,0.00
2018-09-06T01:29:38.795Z,0.00
2018-09-06T01:30:38.793Z,0.00
2018-09-06T01:31:38.789Z,0.00
2018-09-06T01:32:38.794Z,0.00
2018-09-06T01:33:38.794Z,0.00
2018-09-06T01:34:38.790Z,0.00
2018-09-06T01:35:38.794Z,0.00
2018-09-06T01:36:38.791Z,0.00
2018-09-06T01:37:38.787Z,0.00
2018-09-06T01:38:38.857Z,0.00
2018-09-06T01:39:38.784Z,0.00
2018-09-06T01:40:38.786Z,0.00
2018-09-06T01:41:38.784Z,0.00
2018-09-06T01:42:38.786Z,0.00
2018-09-06T01:43:38.784Z,0.00
2018-09-06T01:44:38.780Z,0.00
2018-09-06T01:45:38.782Z,0.00
2018-09-06T01:46:38.780Z,0.00
2018-09-06T01:47:38.780Z,0.00
2018-09-06T01:48:38.780Z,0.00
2018-09-06T01:49:38.785Z,0.00
2018-09-06T01:50:38.777Z,0.00
2018-09-06T01:51:38.781Z,0.00
2018-09-06T01:52:38.788Z,0.00
2018-09-06T01:53:38.774Z,0.00
2018-09-06T01:54:38.776Z,0.00
2018-09-06T01:55:38.774Z,0.00
2018-09-06T01:56:38.778Z,0.00
2018-09-06T01:57:38.768Z,0.00
2018-09-06T01:58:38.767Z,0.00
2018-09-06T01:59:38.774Z,0.00
2018-09-06T02:00:38.766Z,0.00
2018-09-06T02:01:38.768Z,0.00
2018-09-06T02:02:38.768Z,0.00
2018-09-06T02:03:38.770Z,0.00
2018-09-06T02:04:38.765Z,0.00
2018-09-06T02:05:38.771Z,0.00
2018-09-06T02:06:38.772Z,0.00
2018-09-06T02:07:38.764Z,0.00
2018-09-06T02:08:38.762Z,0.00
2018-09-06T02:09:38.766Z,0.00
2018-09-06T02:10:38.762Z,0.00
2018-09-06T02:11:38.763Z,0.00
2018-09-06T02:12:38.759Z,0.00
2018-09-06T02:13:38.759Z,0.00
2018-09-06T02:14:38.758Z,0.00
2018-09-06T02:15:38.759Z,0.00
2018-09-06T02:16:38.762Z,0.00
2018-09-06T02:17:38.756Z,0.00
2018-09-06T02:18:38.755Z,0.00
2018-09-06T02:19:38.753Z,0.00
2018-09-06T02:20:38.759Z,0.00
2018-09-06T02:21:38.752Z,0.00
2018-09-06T02:22:38.751Z,0.00
2018-09-06T02:23:38.750Z,0.00
2018-09-06T02:24:38.754Z,0.00
2018-09-06T02:25:38.747Z,0.00
2018-09-06T02:26:38.748Z,0.00
2018-09-06T02:27:38.749Z,0.00
2018-09-06T02:28:38.749Z,0.00
2018-09-06T02:29:38.746Z,0.00
2018-09-06T02:30:38.752Z,0.00
2018-09-06T02:31:38.745Z,0.00
2018-09-06T02:32:38.744Z,0.00
2018-09-06T02:33:38.745Z,0.00
2018-09-06T02:34:38.748Z,0.00
2018-09-06T02:35:38.746Z,0.00
2018-09-06T02:36:38.742Z,0.00
2018-09-06T02:37:38.746Z,0.00
2018-09-06T02:38:38.741Z,0.00
2018-09-06T02:39:38.736Z,0.00
2018-09-06T02:40:38.740Z,0.00
2018-09-06T02:41:38.735Z,0.00
2018-09-06T02:42:38.744Z,0.00
2018-09-06T02:43:38.739Z,0.00
2018-09-06T02:44:38.738Z,0.00
2018-09-06T02:45:38.735Z,0.00
2018-09-06T02:46:38.733Z,0.00
2018-09-06T02:47:38.736Z,0.00
2018-09-06T02:48:38.731Z,0.00
2018-09-06T02:49:38.732Z,0.00
2018-09-06T02:50:38.730Z,0.00
2018-09-06T02:51:38.737Z,0.00
2018-09-06T02:52:38.723Z,0.00
2018-09-06T02:53:38.725Z,0.00
2018-09-06T02:54:38.727Z,0.00
2018-09-06T02:55:38.725Z,0.00
2018-09-06T02:56:38.725Z,0.00
2018-09-06T02:57:38.728Z,0.00
2018-09-06T02:58:38.724Z,0.00
2018-09-06T02:59:38.722Z,0.00
2018-09-06T03:00:38.725Z,0.00
2018-09-06T03:01:38.720Z,0.00
2018-09-06T03:02:38.719Z,0.00
2018-09-06T03:03:38.717Z,0.00
2018-09-06T03:04:38.723Z,0.00
2018-09-06T03:05:38.716Z,0.00
2018-09-06T03:06:38.711Z,0.00
2018-09-06T03:07:38.713Z,0.00
2018-09-06T03:08:38.715Z,0.00
2018-09-06T03:09:38.712Z,0.00
2018-09-06T03:10:38.713Z,0.00
2018-09-06T03:11:38.719Z,0.00
2018-09-06T03:12:38.712Z,0.00
2018-09-06T03:13:38.708Z,0.00
2018-09-06T03:14:38.717Z,0.00
2018-09-06T03:15:38.708Z,0.00
2018-09-06T03:16:38.706Z,0.00
2018-09-06T03:17:38.702Z,0.00
2018-09-06T03:18:38.712Z,0.00
2018-09-06T03:19:38.698Z,0.00
2018-09-06T03:20:38.699Z,0.00
2018-09-06T03:21:38.703Z,0.00
2018-09-06T03:22:38.702Z,0.00
2018-09-06T03:23:38.700Z,0.00
2018-09-06T03:24:38.703Z,0.00
2018-09-06T03:25:38.700Z,0.00
2018-09-06T03:26:38.696Z,0.00
2018-09-06T03:27:38.695Z,0.00
2018-09-06T03:28:38.695Z,0.00
2018-09-06T03:29:38.694Z,0.00
2018-09-06T03:30:38.695Z,0.00
2018-09-06T03:31:38.698Z,0.00
2018-09-06T03:32:38.692Z,0.00
2018-09-06T03:33:38.687Z,0.00
2018-09-06T03:34:38.689Z,0.00
2018-09-06T03:35:38.694Z,0.00
2018-09-06T03:36:38.689Z,0.00
2018-09-06T03:37:38.687Z,0.00
2018-09-06T03:38:38.691Z,0.00
2018-09-06T03:39:38.687Z,0.00
2018-09-06T03:40:38.685Z,0.00
2018-09-06T03:41:38.687Z,0.00
2018-09-06T03:42:38.680Z,0.00
2018-09-06T03:43:38.681Z,0.00
2018-09-06T03:44:38.680Z,0.00
2018-09-06T03:45:38.679Z,0.00
2018-09-06T03:46:38.673Z,0.00
2018-09-06T03:47:38.675Z,0.00
2018-09-06T03:48:38.677Z,0.00
2018-09-06T03:49:38.681Z,0.00
2018-09-06T03:50:38.676Z,0.00
2018-09-06T03:51:38.676Z,0.00
2018-09-06T03:52:38.676Z,0.00
2018-09-06T03:53:38.670Z,0.00
2018-09-06T03:54:38.675Z,4.00
2018-09-06T03:55:38.669Z,4.00
2018-09-06T03:56:38.668Z,0.00
2018-09-06T03:57:38.667Z,4.00
2018-09-06T03:58:38.673Z,4.00
2018-09-06T03:59:38.668Z,4.00
2018-09-06T04:00:38.662Z,8.00
2018-09-06T04:01:38.664Z,4.00
2018-09-06T04:02:38.664Z,4.00
2018-09-06T04:03:38.662Z,4.00
2018-09-06T04:04:38.668Z,12.00
2018-09-06T04:05:38.659Z,12.00
2018-09-06T04:06:38.657Z,8.00
2018-09-06T04:07:38.659Z,12.00
2018-09-06T04:08:38.659Z,16.00
2018-09-06T04:09:38.654Z,16.00
2018-09-06T04:10:38.654Z,20.00
2018-09-06T04:11:38.655Z,24.00
2018-09-06T04:12:38.656Z,28.00
2018-09-06T04:13:38.646Z,32.00
2018-09-06T04:14:38.648Z,36.00
2018-09-06T04:15:38.652Z,40.00
2018-09-06T04:16:38.648Z,44.00
2018-09-06T04:17:38.651Z,48.00
2018-09-06T04:18:38.742Z,56.00
2018-09-06T04:19:38.645Z,60.00
2018-09-06T04:20:38.644Z,68.00
2018-09-06T04:21:38.646Z,76.00
2018-09-06T04:22:38.644Z,84.00
2018-09-06T04:23:38.656Z,96.00
2018-09-06T04:24:38.636Z,108.00
2018-09-06T04:25:38.641Z,116.00
2018-09-06T04:26:38.634Z,124.00
2018-09-06T04:27:38.636Z,136.00
2018-09-06T04:28:38.636Z,148.00
2018-09-06T04:29:38.637Z,164.00
2018-09-06T04:30:38.633Z,180.00
2018-09-06T04:31:38.638Z,192.00
2018-09-06T04:32:38.633Z,208.00
2018-09-06T04:33:38.633Z,224.00
2018-09-06T04:34:38.635Z,240.00
2018-09-06T04:35:38.630Z,256.00
2018-09-06T04:36:38.629Z,276.00
2018-09-06T04:37:38.626Z,300.00
2018-09-06T04:38:38.633Z,332.00
2018-09-06T04:39:38.625Z,364.00
2018-09-06T04:40:38.624Z,396.00
2018-09-06T04:41:38.623Z,428.00
2018-09-06T04:42:38.629Z,456.00
2018-09-06T04:43:38.700Z,484.00
2018-09-06T04:44:38.621Z,516.00
2018-09-06T04:45:38.620Z,552.00
2018-09-06T04:46:38.628Z,584.00
2018-09-06T04:47:38.618Z,620.00
2018-09-06T04:48:38.624Z,660.00
2018-09-06T04:49:38.615Z,692.00
2018-09-06T04:50:38.615Z,732.00
2018-09-06T04:51:38.620Z,780.00
2018-09-06T04:52:38.608Z,824.00
2018-09-06T04:53:38.610Z,876.00
2018-09-06T04:54:38.616Z,932.00
2018-09-06T04:55:38.609Z,988.00
2018-09-06T04:56:38.612Z,1044.00
2018-09-06T04:57:38.609Z,1108.00
2018-09-06T04:58:38.623Z,1168.00
2018-09-06T04:59:38.606Z,1220.00
2018-09-06T05:00:38.607Z,1252.00
2018-09-06T05:01:38.610Z,1288.00
2018-09-06T05:02:38.603Z,1348.00
2018-09-06T05:03:38.602Z,1428.00
2018-09-06T05:04:38.602Z,1512.00
2018-09-06T05:05:38.602Z,1580.00
2018-09-06T05:06:38.600Z,1636.00
2018-09-06T05:07:38.598Z,1688.00
2018-09-06T05:08:38.598Z,1748.00
2018-09-06T05:09:38.601Z,1820.00
2018-09-06T05:10:38.594Z,1896.00
2018-09-06T05:11:38.592Z,1964.00
2018-09-06T05:12:38.596Z,2024.00
2018-09-06T05:13:38.592Z,2088.00
2018-09-06T05:14:38.593Z,2156.00
2018-09-06T05:15:38.593Z,2240.00
2018-09-06T05:16:38.591Z,2328.00
2018-09-06T05:17:38.587Z,2408.00
2018-09-06T05:18:38.593Z,2536.00
2018-09-06T05:19:38.588Z,2668.00
2018-09-06T05:20:38.586Z,2808.00
2018-09-06T05:21:38.586Z,2944.00
2018-09-06T05:22:38.587Z,3168.00
2018-09-06T05:23:38.586Z,3452.00
2018-09-06T05:24:38.583Z,3516.00
2018-09-06T05:25:38.585Z,3428.00
2018-09-06T05:26:38.587Z,3564.00
2018-09-06T05:27:38.583Z,3832.00
2018-09-06T05:28:38.583Z,4132.00
2018-09-06T05:29:38.580Z,4272.00
2018-09-06T05:30:38.644Z,4348.00
2018-09-06T05:31:38.583Z,4464.00
2018-09-06T05:32:38.584Z,4564.00
2018-09-06T05:33:38.580Z,4764.00
2018-09-06T05:34:38.579Z,5048.00
2018-09-06T05:35:38.579Z,5336.00
2018-09-06T05:36:38.643Z,5504.00
2018-09-06T05:37:38.579Z,5688.00
2018-09-06T05:38:38.579Z,5952.00
2018-09-06T05:39:38.577Z,6144.00
2018-09-06T05:40:38.579Z,6200.00
2018-09-06T05:41:38.581Z,6356.00
2018-09-06T05:42:39.157Z,6548.00
2018-09-06T05:43:38.575Z,6816.00
2018-09-06T05:44:38.579Z,6892.00
2018-09-06T05:45:38.585Z,7068.00
2018-09-06T05:46:38.579Z,7144.00
2018-09-06T05:47:38.582Z,7484.00
2018-09-06T05:48:38.827Z,7848.00
2018-09-06T05:49:38.580Z,7660.00
2018-09-06T05:50:38.581Z,7344.00
2018-09-06T05:51:38.582Z,7240.00
2018-09-06T05:52:38.582Z,7328.00
2018-09-06T05:53:38.581Z,7540.00
2018-09-06T05:54:38.580Z,7784.00
2018-09-06T05:55:38.645Z,8196.00
2018-09-06T05:56:38.583Z,8832.00
2018-09-06T05:57:38.583Z,8940.00
2018-09-06T05:58:38.585Z,9208.00
2018-09-06T05:59:38.625Z,9020.00
2018-09-06T06:00:38.588Z,9368.00
2018-09-06T06:01:38.586Z,9724.00
2018-09-06T06:02:38.587Z,10392.00
2018-09-06T06:03:38.586Z,10664.00
2018-09-06T06:04:38.597Z,10732.00
2018-09-06T06:05:38.598Z,10612.00
2018-09-06T06:06:38.644Z,10904.00
2018-09-06T06:07:38.590Z,10704.00
2018-09-06T06:08:38.595Z,10728.00
2018-09-06T06:09:38.592Z,10044.00
2018-09-06T06:10:38.598Z,10144.00
2018-09-06T06:11:38.617Z,10628.00
2018-09-06T06:12:38.597Z,11388.00
2018-09-06T06:13:38.629Z,11520.00
2018-09-06T06:14:38.601Z,11512.00
2018-09-06T06:15:38.599Z,11752.00
2018-09-06T06:16:38.603Z,11968.00
2018-09-06T06:17:38.605Z,13296.00
2018-09-06T06:18:38.604Z,13952.00
2018-09-06T06:19:38.603Z,13908.00
2018-09-06T06:20:38.608Z,14484.00
2018-09-06T06:21:38.608Z,14656.00
2018-09-06T06:22:38.609Z,14912.00
2018-09-06T06:23:38.607Z,15648.00
2018-09-06T06:24:38.608Z,15584.00
2018-09-06T06:25:38.607Z,16032.00
2018-09-06T06:26:38.610Z,15744.00
2018-09-06T06:27:38.614Z,15392.00
2018-09-06T06:28:38.614Z,15456.00
2018-09-06T06:29:38.616Z,15840.00
2018-09-06T06:30:38.615Z,15328.00
2018-09-06T06:31:38.618Z,16704.00
2018-09-06T06:32:38.619Z,18208.00
2018-09-06T06:33:38.619Z,19456.00
2018-09-06T06:34:38.778Z,17984.00
2018-09-06T06:35:38.620Z,18528.00
2018-09-06T06:36:38.624Z,18912.00
2018-09-06T06:37:38.643Z,20000.00
2018-09-06T06:38:38.626Z,18976.00
2018-09-06T06:39:38.629Z,19744.00
2018-09-06T06:40:38.640Z,18464.00
2018-09-06T06:41:38.635Z,18432.00
2018-09-06T06:42:38.636Z,17024.00
2018-09-06T06:43:38.752Z,18592.00
2018-09-06T06:44:38.635Z,21856.00
2018-09-06T06:45:38.636Z,21920.00
2018-09-06T06:46:38.639Z,22784.00
2018-09-06T06:47:38.648Z,22144.00
2018-09-06T06:48:38.646Z,21920.00
2018-09-06T06:49:38.641Z,23168.00
2018-09-06T06:50:38.651Z,21440.00
2018-09-06T06:51:38.701Z,22496.00
2018-09-06T06:52:38.657Z,23776.00
2018-09-06T06:53:38.665Z,23872.00
2018-09-06T06:54:38.659Z,26816.00
2018-09-06T06:55:38.661Z,23648.00
2018-09-06T06:56:38.664Z,24000.00
2018-09-06T06:57:38.664Z,22816.00
2018-09-06T06:58:38.685Z,20864.00
2018-09-06T06:59:38.670Z,25856.00
2018-09-06T07:00:38.676Z,24448.00
2018-09-06T07:01:38.676Z,26400.00
2018-09-06T07:02:38.681Z,25376.00
2018-09-06T07:03:38.681Z,24832.00
2018-09-06T07:04:38.729Z,28768.00
2018-09-06T07:05:38.686Z,27040.00
2018-09-06T07:06:38.694Z,29376.00
2018-09-06T07:07:38.693Z,29376.00
2018-09-06T07:08:38.691Z,24352.00
2018-09-06T07:09:38.696Z,27776.00
2018-09-06T07:10:38.699Z,28608.00
2018-09-06T07:11:38.703Z,30912.00
2018-09-06T07:12:38.707Z,34272.00
2018-09-06T07:13:38.818Z,29344.00
2018-09-06T07:14:38.715Z,29984.00
2018-09-06T07:15:38.715Z,33696.00
2018-09-06T07:16:39.688Z,30400.00
2018-09-06T07:17:38.722Z,30368.00
2018-09-06T07:18:38.797Z,29728.00
2018-09-06T07:19:38.729Z,29888.00
2018-09-06T07:20:38.728Z,31072.00
2018-09-06T07:21:38.729Z,29216.00
2018-09-06T07:22:38.735Z,26272.00
2018-09-06T07:23:38.734Z,23936.00
2018-09-06T07:24:38.747Z,20192.00
2018-09-06T07:25:38.742Z,16768.00
2018-09-06T07:26:38.746Z,13644.00
2018-09-06T07:27:38.750Z,11628.00
2018-09-06T07:28:38.756Z,8048.00
2018-09-06T07:29:38.755Z,6236.00
2018-09-06T07:30:38.822Z,6208.00
2018-09-06T07:31:38.764Z,6156.00
2018-09-06T07:32:38.772Z,6232.00
2018-09-06T07:33:38.761Z,6200.00
2018-09-06T07:34:39.000Z,7704.00
2018-09-06T07:35:38.773Z,6564.00
2018-09-06T07:36:38.776Z,6148.00
2018-09-06T07:37:38.776Z,5992.00
2018-09-06T07:38:38.779Z,6020.00
2018-09-06T07:39:38.780Z,6032.00
2018-09-06T07:40:38.782Z,5996.00
2018-09-06T07:41:38.781Z,5992.00
2018-09-06T07:42:38.786Z,5952.00
2018-09-06T07:43:38.789Z,5932.00
2018-09-06T07:44:38.790Z,5872.00
2018-09-06T07:45:39.004Z,5968.00
2018-09-06T07:46:38.847Z,5984.00
2018-09-06T07:47:38.792Z,5884.00
2018-09-06T07:48:39.040Z,5892.00
2018-09-06T07:49:38.794Z,5848.00
2018-09-06T07:50:38.797Z,5820.00
2018-09-06T07:51:38.797Z,5804.00
2018-09-06T07:52:38.803Z,5856.00
2018-09-06T07:53:38.803Z,5848.00
2018-09-06T07:54:38.807Z,5896.00
2018-09-06T07:55:38.957Z,5840.00
2018-09-06T07:56:39.847Z,5832.00
2018-09-06T07:57:38.806Z,5800.00
2018-09-06T07:58:38.805Z,5756.00
2018-09-06T07:59:38.805Z,5684.00
2018-09-06T08:00:38.806Z,5620.00
2018-09-06T08:01:38.831Z,5636.00
2018-09-06T08:02:38.806Z,5640.00
2018-09-06T08:03:38.809Z,5520.00
2018-09-06T08:04:38.809Z,5464.00
2018-09-06T08:05:38.809Z,5452.00
2018-09-06T08:06:38.817Z,5472.00
2018-09-06T08:07:38.811Z,5452.00
2018-09-06T08:08:38.896Z,5456.00
2018-09-06T08:09:38.813Z,5484.00
2018-09-06T08:10:38.817Z,5456.00
2018-09-06T08:11:38.816Z,5432.00
2018-09-06T08:12:38.821Z,5408.00
2018-09-06T08:13:38.815Z,5428.00
2018-09-06T08:14:38.819Z,5420.00
2018-09-06T08:15:38.820Z,5368.00
2018-09-06T08:16:38.815Z,5380.00
2018-09-06T08:17:38.819Z,5372.00
2018-09-06T08:18:38.823Z,5352.00
2018-09-06T08:19:38.824Z,5332.00
2018-09-06T08:20:38.824Z,5444.00
2018-09-06T08:21:38.823Z,5400.00
2018-09-06T08:22:38.823Z,5432.00
2018-09-06T08:23:38.827Z,5400.00
2018-09-06T08:24:38.827Z,5416.00
2018-09-06T08:25:38.826Z,5376.00
2018-09-06T08:26:38.939Z,5368.00
2018-09-06T08:27:38.928Z,5364.00
2018-09-06T08:28:38.839Z,5328.00
2018-09-06T08:29:38.835Z,5344.00
2018-09-06T08:30:38.902Z,5356.00
2018-09-06T08:31:38.830Z,5272.00
2018-09-06T08:32:38.836Z,5256.00
2018-09-06T08:33:38.835Z,5288.00
2018-09-06T08:34:38.839Z,5280.00
2018-09-06T08:35:38.837Z,5264.00
2018-09-06T08:36:38.835Z,5228.00
2018-09-06T08:37:38.840Z,5192.00
2018-09-06T08:38:38.840Z,5212.00
2018-09-06T08:39:39.040Z,5196.00
2018-09-06T08:40:38.842Z,5212.00
2018-09-06T08:41:38.842Z,5188.00
2018-09-06T08:42:38.844Z,5164.00
2018-09-06T08:43:38.845Z,5248.00
2018-09-06T08:44:39.640Z,5276.00
2018-09-06T08:45:38.848Z,5284.00
2018-09-06T08:46:38.855Z,5160.00
2018-09-06T08:47:38.933Z,5196.00
2018-09-06T08:48:38.851Z,5180.00
2018-09-06T08:49:38.850Z,5176.00
2018-09-06T08:50:39.048Z,5208.00
2018-09-06T08:51:38.853Z,5204.00
2018-09-06T08:52:38.858Z,5192.00
2018-09-06T08:53:38.852Z,5132.00
2018-09-06T08:54:38.856Z,5156.00
2018-09-06T08:55:38.861Z,5152.00
2018-09-06T08:56:38.858Z,5172.00
2018-09-06T08:57:38.860Z,5064.00
2018-09-06T08:58:38.896Z,5044.00
2018-09-06T08:59:38.867Z,5072.00
2018-09-06T09:00:38.863Z,5076.00
2018-09-06T09:01:38.863Z,5080.00
2018-09-06T09:02:38.931Z,5092.00
2018-09-06T09:03:38.866Z,5100.00
2018-09-06T09:04:38.902Z,5056.00
2018-09-06T09:05:38.867Z,5004.00
2018-09-06T09:06:38.867Z,5008.00
2018-09-06T09:07:38.902Z,5000.00
2018-09-06T09:08:38.872Z,4968.00
2018-09-06T09:09:38.872Z,4992.00
2018-09-06T09:10:38.874Z,5004.00
2018-09-06T09:11:38.875Z,4972.00
2018-09-06T09:12:38.877Z,4932.00
2018-09-06T09:13:38.879Z,4936.00
2018-09-06T09:14:38.878Z,4844.00
2018-09-06T09:15:38.880Z,4840.00
2018-09-06T09:16:38.889Z,4812.00
2018-09-06T09:17:38.883Z,4804.00
2018-09-06T09:18:38.884Z,4832.00
2018-09-06T09:19:38.885Z,4792.00
2018-09-06T09:20:39.653Z,4812.00
2018-09-06T09:21:38.982Z,4848.00
2018-09-06T09:22:38.891Z,4816.00
2018-09-06T09:23:38.901Z,4756.00
2018-09-06T09:24:38.893Z,4784.00
2018-09-06T09:25:38.925Z,4780.00
2018-09-06T09:26:38.897Z,4768.00
2018-09-06T09:27:38.897Z,4672.00
2018-09-06T09:28:38.899Z,4612.00
2018-09-06T09:29:38.899Z,4600.00
2018-09-06T09:30:38.978Z,4604.00
2018-09-06T09:31:39.656Z,4604.00
2018-09-06T09:32:39.656Z,4612.00
2018-09-06T09:33:38.907Z,4604.00
2018-09-06T09:34:38.909Z,4528.00
2018-09-06T09:35:38.910Z,4464.00
2018-09-06T09:36:38.913Z,4460.00
2018-09-06T09:37:38.914Z,4448.00
2018-09-06T09:38:38.913Z,4400.00
2018-09-06T09:39:38.918Z,4300.00
2018-09-06T09:40:38.923Z,4252.00
2018-09-06T09:41:38.921Z,4240.00
2018-09-06T09:42:38.922Z,4208.00
2018-09-06T09:43:38.930Z,4120.00
2018-09-06T09:44:38.927Z,4112.00
2018-09-06T09:45:38.929Z,4124.00
2018-09-06T09:48:11.061Z,4064.00
2018-09-06T09:49:11.041Z,4048.00
2018-09-06T09:51:04.488Z,4088.00
2018-09-06T09:52:04.485Z,4092.00
2018-09-06T09:53:57.908Z,4088.00
2018-09-06T09:54:57.882Z,4044.00
2018-09-06T09:56:51.334Z,4056.00
2018-09-06T09:57:51.284Z,4076.00
2018-09-06T09:59:44.689Z,3940.00
2018-09-06T10:00:44.684Z,3920.00
2018-09-06T10:02:38.105Z,3884.00
2018-09-06T10:03:38.104Z,3860.00
2018-09-06T10:05:31.503Z,3896.00
2018-09-06T10:06:31.532Z,3932.00
2018-09-06T10:08:24.916Z,3920.00
2018-09-06T10:09:24.907Z,3944.00
2018-09-06T10:11:18.297Z,3948.00
2018-09-06T10:12:18.293Z,3940.00
2018-09-06T10:14:11.712Z,3904.00
2018-09-06T10:15:11.696Z,3880.00
2018-09-06T10:17:05.113Z,3876.00
2018-09-06T10:18:05.096Z,3936.00
2018-09-06T10:19:58.493Z,3924.00
2018-09-06T10:20:58.490Z,3984.00
2018-09-06T10:22:51.905Z,4132.00
2018-09-06T10:23:51.888Z,4124.00
2018-09-06T10:25:45.286Z,3760.00
2018-09-06T10:26:45.285Z,3588.00
2018-09-06T10:28:38.706Z,3852.00
2018-09-06T10:29:38.683Z,3800.00
2018-09-06T10:31:32.082Z,3916.00
2018-09-06T10:32:32.078Z,3732.00
2018-09-06T10:34:25.498Z,3608.00
2018-09-06T10:35:25.538Z,3544.00
2018-09-06T10:37:18.913Z,3512.00
2018-09-06T10:38:18.884Z,3508.00
2018-09-06T10:39:18.928Z,3488.00
2018-09-06T10:40:18.894Z,3516.00
2018-09-06T10:41:18.897Z,3536.00
2018-09-06T10:42:18.903Z,3628.00
2018-09-06T10:43:18.900Z,3700.00
2018-09-06T10:44:18.904Z,3724.00
2018-09-06T10:45:18.901Z,3804.00
2018-09-06T10:46:18.905Z,3972.00
2018-09-06T10:47:18.909Z,4228.00
2018-09-06T10:48:18.916Z,4180.00
2018-09-06T10:49:18.917Z,3964.00
2018-09-06T10:50:18.917Z,3764.00
2018-09-06T10:51:18.917Z,3608.00
2018-09-06T10:52:18.928Z,3528.00
2018-09-06T10:53:18.928Z,3548.00
2018-09-06T10:54:18.927Z,3528.00
2018-09-06T10:55:18.933Z,3524.00
2018-09-06T10:56:18.939Z,3532.00
2018-09-06T10:57:18.941Z,3620.00
2018-09-06T10:58:18.940Z,3784.00
2018-09-06T10:59:18.941Z,3864.00
2018-09-06T11:00:18.947Z,3748.00
2018-09-06T11:01:19.930Z,3820.00
2018-09-06T11:02:18.952Z,4000.00
2018-09-06T11:03:18.949Z,4132.00
2018-09-06T11:04:18.953Z,4168.00
2018-09-06T11:05:18.955Z,4148.00
2018-09-06T11:06:18.963Z,4128.00
2018-09-06T11:07:18.961Z,4112.00
2018-09-06T11:08:18.984Z,4260.00
2018-09-06T11:09:18.971Z,4480.00
2018-09-06T11:10:18.967Z,4568.00
2018-09-06T11:11:18.970Z,4268.00
2018-09-06T11:12:18.973Z,4040.00
2018-09-06T11:13:18.978Z,4036.00
2018-09-06T11:14:18.986Z,4108.00
2018-09-06T11:15:18.983Z,3936.00
2018-09-06T11:16:18.983Z,3980.00
2018-09-06T11:17:18.996Z,4112.00
2018-09-06T11:18:18.993Z,4152.00
2018-09-06T11:19:18.995Z,4140.00
2018-09-06T11:20:18.997Z,4008.00
2018-09-06T11:21:19.052Z,3932.00
2018-09-06T11:22:19.328Z,3952.00
2018-09-06T11:23:19.004Z,4064.00
2018-09-06T11:24:19.008Z,4236.00
2018-09-06T11:25:19.013Z,4388.00
2018-09-06T11:26:19.019Z,4408.00
2018-09-06T11:27:19.015Z,4192.00
2018-09-06T11:28:19.020Z,4064.00
2018-09-06T11:29:19.025Z,4068.00
2018-09-06T11:30:19.029Z,3976.00
2018-09-06T11:31:19.029Z,4008.00
2018-09-06T11:32:19.027Z,4136.00
2018-09-06T11:33:19.876Z,3824.00
2018-09-06T11:34:19.038Z,4096.00
2018-09-06T11:35:19.041Z,4664.00
2018-09-06T11:36:19.040Z,5296.00
2018-09-06T11:37:19.041Z,5948.00
2018-09-06T11:38:19.048Z,5828.00
2018-09-06T11:39:19.076Z,5716.00
2018-09-06T11:40:19.082Z,5916.00
2018-09-06T11:41:19.057Z,6028.00
2018-09-06T11:42:19.056Z,6180.00
2018-09-06T11:43:19.062Z,6644.00
2018-09-06T11:44:19.065Z,6608.00
2018-09-06T11:45:19.073Z,6388.00
2018-09-06T11:46:19.075Z,6664.00
2018-09-06T11:47:19.162Z,6636.00
2018-09-06T11:48:19.081Z,6408.00
2018-09-06T11:49:19.090Z,6188.00
2018-09-06T11:50:19.092Z,6268.00
2018-09-06T11:51:19.088Z,5852.00
2018-09-06T11:52:19.092Z,5124.00
2018-09-06T11:53:19.092Z,4948.00
2018-09-06T11:54:19.097Z,4940.00
2018-09-06T11:55:19.100Z,4892.00
2018-09-06T11:56:19.105Z,4708.00
2018-09-06T11:57:19.114Z,4448.00
2018-09-06T11:58:19.108Z,4400.00
2018-09-06T11:59:19.113Z,4288.00
2018-09-06T12:00:19.112Z,4044.00
2018-09-06T12:01:19.121Z,4100.00
2018-09-06T12:02:19.125Z,4348.00
2018-09-06T12:03:19.125Z,4488.00
2018-09-06T12:04:19.128Z,4556.00
2018-09-06T12:05:19.129Z,5080.00
2018-09-06T12:06:19.135Z,5272.00
2018-09-06T12:07:19.135Z,5076.00
2018-09-06T12:08:19.140Z,4932.00
2018-09-06T12:09:19.141Z,4296.00
2018-09-06T12:10:19.145Z,3576.00
2018-09-06T12:11:19.149Z,3164.00
2018-09-06T12:12:19.156Z,3220.00
2018-09-06T12:13:19.159Z,3160.00
2018-09-06T12:14:19.161Z,3400.00
2018-09-06T12:15:19.163Z,3420.00
2018-09-06T12:16:19.169Z,3436.00
2018-09-06T12:17:19.169Z,3164.00
2018-09-06T12:18:19.172Z,3352.00
2018-09-06T12:19:19.183Z,3712.00
2018-09-06T12:20:19.178Z,3752.00
2018-09-06T12:21:19.181Z,3248.00
2018-09-06T12:22:19.184Z,3392.00
2018-09-06T12:23:19.192Z,3380.00
2018-09-06T12:24:19.190Z,3176.00
2018-09-06T12:25:19.247Z,3468.00
2018-09-06T12:26:19.204Z,3604.00
2018-09-06T12:27:19.201Z,3568.00
2018-09-06T12:28:19.200Z,3436.00
2018-09-06T12:29:19.203Z,3368.00
2018-09-06T12:30:19.210Z,3688.00
2018-09-06T12:31:19.205Z,3616.00
2018-09-06T12:32:19.227Z,3568.00
2018-09-06T12:33:19.382Z,3528.00
2018-09-06T12:34:19.220Z,3504.00
2018-09-06T12:35:19.227Z,3480.00
2018-09-06T12:36:19.224Z,3476.00
2018-09-06T12:37:19.229Z,3488.00
2018-09-06T12:38:19.242Z,3092.00
2018-09-06T12:39:19.239Z,3040.00
2018-09-06T12:40:19.239Z,3000.00
2018-09-06T12:41:19.244Z,3048.00
2018-09-06T12:42:19.245Z,3112.00
2018-09-06T12:43:19.247Z,3680.00
2018-09-06T12:44:19.272Z,3820.00